sensor_id;sensor_type;location;lat;lon;timestamp;pressure;altitude;pressure_sealevel;temperature;humidity
13974;BME280;7060;43.770;4.008;2023-07-13T00:01:17;101028.75;;;25.15;51.75
13974;BME280;7060;43.770;4.008;2023-07-13T00:03:48;101022.06;;;25.11;51.67
13974;BME280;7060;43.770;4.008;2023-07-13T00:06:17;101003.84;;;24.93;51.92
13974;BME280;7060;43.770;4.008;2023-07-13T00:08:47;101040.38;;;24.99;51.96
13974;BME280;7060;43.770;4.008;2023-07-13T00:11:16;101035.59;;;24.94;52.22
13974;BME280;7060;43.770;4.008;2023-07-13T00:13:46;101033.69;;;24.94;52.14
13974;BME280;7060;43.770;4.008;2023-07-13T00:16:17;101027.47;;;24.87;52.64
13974;BME280;7060;43.770;4.008;2023-07-13T00:18:46;101037.75;;;24.74;52.86
13974;BME280;7060;43.770;4.008;2023-07-13T00:21:15;101043.81;;;24.64;53.35
13974;BME280;7060;43.770;4.008;2023-07-13T00:23:44;101036.34;;;24.53;53.49
13974;BME280;7060;43.770;4.008;2023-07-13T00:26:13;101029.06;;;24.47;53.59
13974;BME280;7060;43.770;4.008;2023-07-13T00:28:42;101032.72;;;24.41;53.63
13974;BME280;7060;43.770;4.008;2023-07-13T00:31:13;101037.38;;;24.40;53.88
13974;BME280;7060;43.770;4.008;2023-07-13T00:33:44;101053.00;;;24.33;53.99
13974;BME280;7060;43.770;4.008;2023-07-13T00:36:13;101049.56;;;24.19;54.38
13974;BME280;7060;43.770;4.008;2023-07-13T00:38:42;101045.34;;;24.05;54.97
13974;BME280;7060;43.770;4.008;2023-07-13T00:41:12;101045.03;;;23.95;55.08
13974;BME280;7060;43.770;4.008;2023-07-13T00:43:41;101037.84;;;23.94;55.06
13974;BME280;7060;43.770;4.008;2023-07-13T00:46:22;101038.28;;;23.98;54.96
13974;BME280;7060;43.770;4.008;2023-07-13T00:48:54;101043.41;;;23.87;55.25
13974;BME280;7060;43.770;4.008;2023-07-13T00:51:28;101039.97;;;23.74;55.46
13974;BME280;7060;43.770;4.008;2023-07-13T00:54:00;101041.53;;;23.63;55.64
13974;BME280;7060;43.770;4.008;2023-07-13T00:56:33;100980.38;;;23.21;55.80
13974;BME280;7060;43.770;4.008;2023-07-13T00:59:03;101049.19;;;23.54;56.15
13974;BME280;7060;43.770;4.008;2023-07-13T01:01:34;101038.16;;;23.43;56.15
13974;BME280;7060;43.770;4.008;2023-07-13T01:04:06;100979.28;;;23.04;56.70
13974;BME280;7060;43.770;4.008;2023-07-13T01:06:36;100971.19;;;22.90;56.74
13974;BME280;7060;43.770;4.008;2023-07-13T01:09:07;100960.84;;;22.74;57.05
13974;BME280;7060;43.770;4.008;2023-07-13T01:11:38;101033.09;;;23.15;56.88
13974;BME280;7060;43.770;4.008;2023-07-13T01:14:07;101036.25;;;23.12;56.67
13974;BME280;7060;43.770;4.008;2023-07-13T01:16:37;101039.19;;;23.10;56.73
13974;BME280;7060;43.770;4.008;2023-07-13T01:19:14;101019.81;;;22.93;56.85
13974;BME280;7060;43.770;4.008;2023-07-13T01:21:52;101040.16;;;22.98;57.15
13974;BME280;7060;43.770;4.008;2023-07-13T01:24:21;101014.06;;;22.77;57.03
13974;BME280;7060;43.770;4.008;2023-07-13T01:26:50;101040.84;;;22.86;57.03
13974;BME280;7060;43.770;4.008;2023-07-13T01:29:19;101032.31;;;22.76;57.31
13974;BME280;7060;43.770;4.008;2023-07-13T01:31:47;101035.41;;;22.80;57.05
13974;BME280;7060;43.770;4.008;2023-07-13T01:34:17;101037.09;;;22.81;57.27
13974;BME280;7060;43.770;4.008;2023-07-13T01:36:46;101036.25;;;22.80;57.47
13974;BME280;7060;43.770;4.008;2023-07-13T01:39:16;101033.41;;;22.69;57.27
13974;BME280;7060;43.770;4.008;2023-07-13T01:41:45;101030.50;;;22.57;57.33
13974;BME280;7060;43.770;4.008;2023-07-13T01:44:14;101023.84;;;22.46;57.51
13974;BME280;7060;43.770;4.008;2023-07-13T01:46:43;101033.09;;;22.39;58.08
13974;BME280;7060;43.770;4.008;2023-07-13T01:49:13;101030.59;;;22.30;58.38
13974;BME280;7060;43.770;4.008;2023-07-13T01:51:42;101025.22;;;22.24;58.33
13974;BME280;7060;43.770;4.008;2023-07-13T01:54:11;101025.84;;;22.19;58.68
13974;BME280;7060;43.770;4.008;2023-07-13T01:56:41;101022.94;;;22.14;58.73
13974;BME280;7060;43.770;4.008;2023-07-13T01:59:10;101024.00;;;22.07;58.60
13974;BME280;7060;43.770;4.008;2023-07-13T02:01:39;101021.50;;;21.99;58.95
13974;BME280;7060;43.770;4.008;2023-07-13T02:04:09;101028.03;;;21.91;59.54
13974;BME280;7060;43.770;4.008;2023-07-13T02:06:38;101032.84;;;21.82;59.74
13974;BME280;7060;43.770;4.008;2023-07-13T02:09:07;101011.50;;;21.59;60.11
13974;BME280;7060;43.770;4.008;2023-07-13T02:11:35;101020.72;;;21.52;60.21
13974;BME280;7060;43.770;4.008;2023-07-13T02:14:07;101008.41;;;21.43;59.84
13974;BME280;7060;43.770;4.008;2023-07-13T02:16:36;101032.84;;;21.49;60.50
13974;BME280;7060;43.770;4.008;2023-07-13T02:19:05;101032.25;;;21.41;60.80
13974;BME280;7060;43.770;4.008;2023-07-13T02:21:34;101032.88;;;21.36;60.43
13974;BME280;7060;43.770;4.008;2023-07-13T02:24:04;101031.00;;;21.30;60.58
13974;BME280;7060;43.770;4.008;2023-07-13T02:26:34;101030.16;;;21.29;60.85
13974;BME280;7060;43.770;4.008;2023-07-13T02:29:03;101026.81;;;21.27;60.67
13974;BME280;7060;43.770;4.008;2023-07-13T02:31:34;101038.09;;;21.24;60.43
13974;BME280;7060;43.770;4.008;2023-07-13T02:34:03;101024.69;;;21.16;60.94
13974;BME280;7060;43.770;4.008;2023-07-13T02:36:32;101023.88;;;21.22;60.66
13974;BME280;7060;43.770;4.008;2023-07-13T02:39:03;100984.50;;;20.99;60.29
13974;BME280;7060;43.770;4.008;2023-07-13T02:41:35;101029.09;;;21.31;59.76
13974;BME280;7060;43.770;4.008;2023-07-13T02:44:04;101029.94;;;21.31;59.68
13974;BME280;7060;43.770;4.008;2023-07-13T02:46:37;101030.16;;;21.29;59.66
13974;BME280;7060;43.770;4.008;2023-07-13T02:49:06;101023.66;;;21.24;59.94
13974;BME280;7060;43.770;4.008;2023-07-13T02:51:35;101030.34;;;21.28;59.42
13974;BME280;7060;43.770;4.008;2023-07-13T02:54:04;101030.97;;;21.23;59.49
13974;BME280;7060;43.770;4.008;2023-07-13T02:56:36;101029.72;;;21.19;59.87
13974;BME280;7060;43.770;4.008;2023-07-13T02:59:06;101033.47;;;21.18;59.81
13974;BME280;7060;43.770;4.008;2023-07-13T03:01:37;101024.09;;;21.14;60.01
13974;BME280;7060;43.770;4.008;2023-07-13T03:04:06;101042.28;;;21.07;59.97
13974;BME280;7060;43.770;4.008;2023-07-13T03:06:35;101024.22;;;21.00;60.02
13974;BME280;7060;43.770;4.008;2023-07-13T03:09:04;101045.41;;;21.11;59.91
13974;BME280;7060;43.770;4.008;2023-07-13T03:11:35;101038.72;;;21.07;59.96
13974;BME280;7060;43.770;4.008;2023-07-13T03:14:14;101042.88;;;21.03;59.96
13974;BME280;7060;43.770;4.008;2023-07-13T03:16:45;101047.91;;;21.06;59.71
13974;BME280;7060;43.770;4.008;2023-07-13T03:19:14;101041.63;;;21.05;59.74
13974;BME280;7060;43.770;4.008;2023-07-13T03:21:47;101050.00;;;21.04;59.53
13974;BME280;7060;43.770;4.008;2023-07-13T03:24:16;101041.63;;;21.05;59.02
13974;BME280;7060;43.770;4.008;2023-07-13T03:26:46;101052.50;;;21.18;58.32
13974;BME280;7060;43.770;4.008;2023-07-13T03:29:15;101047.53;;;21.35;57.65
13974;BME280;7060;43.770;4.008;2023-07-13T03:31:46;100990.63;;;21.14;57.11
13974;BME280;7060;43.770;4.008;2023-07-13T03:34:15;101054.63;;;21.62;56.16
13974;BME280;7060;43.770;4.008;2023-07-13T03:36:44;101055.84;;;21.73;56.37
13974;BME280;7060;43.770;4.008;2023-07-13T03:39:13;101045.59;;;21.75;56.00
13974;BME280;7060;43.770;4.008;2023-07-13T03:41:54;101052.72;;;21.76;55.91
13974;BME280;7060;43.770;4.008;2023-07-13T03:44:23;101054.84;;;21.81;55.66
13974;BME280;7060;43.770;4.008;2023-07-13T03:46:56;101055.66;;;21.81;55.17
13974;BME280;7060;43.770;4.008;2023-07-13T03:49:26;101059.84;;;21.84;55.15
13974;BME280;7060;43.770;4.008;2023-07-13T03:51:55;101058.81;;;21.85;55.24
13974;BME280;7060;43.770;4.008;2023-07-13T03:54:25;101058.81;;;21.85;54.96
13974;BME280;7060;43.770;4.008;2023-07-13T03:56:54;101061.75;;;21.83;54.86
13974;BME280;7060;43.770;4.008;2023-07-13T03:59:22;101064.03;;;21.80;55.46
13974;BME280;7060;43.770;4.008;2023-07-13T04:01:51;101073.44;;;21.77;55.33
13974;BME280;7060;43.770;4.008;2023-07-13T04:04:22;101075.31;;;21.77;55.41
13974;BME280;7060;43.770;4.008;2023-07-13T04:06:53;101074.50;;;21.70;55.32
13974;BME280;7060;43.770;4.008;2023-07-13T04:09:22;101067.19;;;21.63;55.89
13974;BME280;7060;43.770;4.008;2023-07-13T04:11:51;101068.66;;;21.59;56.00
13974;BME280;7060;43.770;4.008;2023-07-13T04:14:19;101082.25;;;21.53;56.17
13974;BME280;7060;43.770;4.008;2023-07-13T04:16:48;101086.63;;;21.47;56.11
13974;BME280;7060;43.770;4.008;2023-07-13T04:19:17;101090.63;;;21.51;56.01
13974;BME280;7060;43.770;4.008;2023-07-13T04:21:47;101095.00;;;21.52;56.11
13974;BME280;7060;43.770;4.008;2023-07-13T04:24:16;101051.25;;;21.21;55.80
13974;BME280;7060;43.770;4.008;2023-07-13T04:26:46;101073.88;;;21.35;56.02
13974;BME280;7060;43.770;4.008;2023-07-13T04:29:15;101101.69;;;21.50;55.61
13974;BME280;7060;43.770;4.008;2023-07-13T04:31:44;101114.25;;;21.51;55.32
13974;BME280;7060;43.770;4.008;2023-07-13T04:34:12;101113.63;;;21.55;54.88
13974;BME280;7060;43.770;4.008;2023-07-13T04:36:41;101115.72;;;21.53;52.95
13974;BME280;7060;43.770;4.008;2023-07-13T04:41:40;101116.78;;;21.66;52.29
13974;BME280;7060;43.770;4.008;2023-07-13T04:44:09;101112.16;;;21.73;51.28
13974;BME280;7060;43.770;4.008;2023-07-13T04:46:39;101114.94;;;21.86;50.84
13974;BME280;7060;43.770;4.008;2023-07-13T04:49:08;101124.75;;;21.93;49.65
13974;BME280;7060;43.770;4.008;2023-07-13T04:51:37;101118.25;;;22.01;48.88
13974;BME280;7060;43.770;4.008;2023-07-13T04:54:06;101125.56;;;22.14;49.17
13974;BME280;7060;43.770;4.008;2023-07-13T04:56:36;101116.34;;;22.21;48.28
13974;BME280;7060;43.770;4.008;2023-07-13T04:59:06;101121.38;;;22.24;48.85
13974;BME280;7060;43.770;4.008;2023-07-13T05:01:35;101125.72;;;22.25;47.83
13974;BME280;7060;43.770;4.008;2023-07-13T05:04:04;101128.25;;;22.27;47.97
13974;BME280;7060;43.770;4.008;2023-07-13T05:06:33;101138.28;;;22.33;47.59
13974;BME280;7060;43.770;4.008;2023-07-13T05:09:02;101136.63;;;22.39;47.29
13974;BME280;7060;43.770;4.008;2023-07-13T05:11:31;101126.53;;;22.46;46.79
13974;BME280;7060;43.770;4.008;2023-07-13T05:14:01;101129.03;;;22.54;47.10
13974;BME280;7060;43.770;4.008;2023-07-13T05:16:31;101139.94;;;22.60;46.96
13974;BME280;7060;43.770;4.008;2023-07-13T05:19:00;101139.91;;;22.67;46.67
13974;BME280;7060;43.770;4.008;2023-07-13T05:21:30;101140.50;;;22.76;46.90
13974;BME280;7060;43.770;4.008;2023-07-13T05:23:59;101138.34;;;22.84;47.13
13974;BME280;7060;43.770;4.008;2023-07-13T05:26:46;101138.94;;;22.93;47.01
13974;BME280;7060;43.770;4.008;2023-07-13T05:29:16;101145.63;;;23.04;46.94
13974;BME280;7060;43.770;4.008;2023-07-13T05:31:45;101149.34;;;23.09;46.25
13974;BME280;7060;43.770;4.008;2023-07-13T05:34:14;101152.03;;;23.16;45.62
13974;BME280;7060;43.770;4.008;2023-07-13T05:36:43;101152.19;;;23.34;45.60
13974;BME280;7060;43.770;4.008;2023-07-13T05:39:12;101157.63;;;23.66;44.90
13974;BME280;7060;43.770;4.008;2023-07-13T05:41:41;101154.06;;;23.90;43.69
13974;BME280;7060;43.770;4.008;2023-07-13T05:44:11;101126.38;;;23.86;43.30
13974;BME280;7060;43.770;4.008;2023-07-13T05:46:42;101160.25;;;24.28;42.79
13974;BME280;7060;43.770;4.008;2023-07-13T05:49:11;101161.84;;;24.54;42.62
13974;BME280;7060;43.770;4.008;2023-07-13T05:51:40;101164.59;;;24.91;42.38
13974;BME280;7060;43.770;4.008;2023-07-13T05:54:09;101172.19;;;25.37;40.97
13974;BME280;7060;43.770;4.008;2023-07-13T05:56:38;101177.91;;;25.89;40.54
13974;BME280;7060;43.770;4.008;2023-07-13T05:59:07;101158.28;;;26.39;39.08
13974;BME280;7060;43.770;4.008;2023-07-13T06:01:36;101170.28;;;26.84;38.43
13974;BME280;7060;43.770;4.008;2023-07-13T06:04:07;101159.53;;;27.23;37.62
13974;BME280;7060;43.770;4.008;2023-07-13T06:06:36;101168.53;;;27.63;37.62
13974;BME280;7060;43.770;4.008;2023-07-13T06:09:05;101176.22;;;28.12;36.74
13974;BME280;7060;43.770;4.008;2023-07-13T06:11:34;101183.03;;;28.43;35.58
13974;BME280;7060;43.770;4.008;2023-07-13T06:14:03;101175.44;;;28.72;34.97
13974;BME280;7060;43.770;4.008;2023-07-13T06:16:32;101174.19;;;29.01;35.07
13974;BME280;7060;43.770;4.008;2023-07-13T06:19:01;101167.34;;;29.30;34.14
13974;BME280;7060;43.770;4.008;2023-07-13T06:21:31;101183.81;;;29.52;33.33
13974;BME280;7060;43.770;4.008;2023-07-13T06:24:00;101183.38;;;29.60;33.61
13974;BME280;7060;43.770;4.008;2023-07-13T06:26:29;101182.25;;;29.88;33.52
13974;BME280;7060;43.770;4.008;2023-07-13T06:28:59;101180.31;;;30.26;32.55
13974;BME280;7060;43.770;4.008;2023-07-13T06:31:28;101186.31;;;30.60;32.12
13974;BME280;7060;43.770;4.008;2023-07-13T06:33:57;101186.72;;;30.79;31.44
13974;BME280;7060;43.770;4.008;2023-07-13T06:36:26;101189.53;;;30.89;31.43
13974;BME280;7060;43.770;4.008;2023-07-13T06:38:57;101192.63;;;31.08;30.52
13974;BME280;7060;43.770;4.008;2023-07-13T06:41:26;101192.09;;;31.16;30.14
13974;BME280;7060;43.770;4.008;2023-07-13T06:43:54;101191.63;;;31.24;30.33
13974;BME280;7060;43.770;4.008;2023-07-13T06:46:23;101199.38;;;31.42;30.11
13974;BME280;7060;43.770;4.008;2023-07-13T06:48:53;101203.25;;;31.61;29.94
13974;BME280;7060;43.770;4.008;2023-07-13T06:51:21;101198.63;;;31.82;29.64
13974;BME280;7060;43.770;4.008;2023-07-13T06:53:50;101205.25;;;32.02;29.22
13974;BME280;7060;43.770;4.008;2023-07-13T06:56:21;101207.75;;;32.08;28.94
13974;BME280;7060;43.770;4.008;2023-07-13T06:58:49;101217.16;;;32.27;29.67
13974;BME280;7060;43.770;4.008;2023-07-13T07:01:19;101222.09;;;32.56;28.90
13974;BME280;7060;43.770;4.008;2023-07-13T07:03:47;101220.38;;;32.80;28.07
13974;BME280;7060;43.770;4.008;2023-07-13T07:06:18;101220.84;;;32.97;28.34
13974;BME280;7060;43.770;4.008;2023-07-13T07:08:47;101220.34;;;32.90;28.19
13974;BME280;7060;43.770;4.008;2023-07-13T07:11:18;101217.50;;;33.01;28.22
13974;BME280;7060;43.770;4.008;2023-07-13T07:13:50;101213.31;;;33.08;28.25
13974;BME280;7060;43.770;4.008;2023-07-13T07:16:21;101218.31;;;33.11;27.91
13974;BME280;7060;43.770;4.008;2023-07-13T07:18:50;101216.34;;;33.17;27.90
13974;BME280;7060;43.770;4.008;2023-07-13T07:21:19;101213.22;;;33.23;27.93
13974;BME280;7060;43.770;4.008;2023-07-13T07:23:50;101212.13;;;33.29;27.60
13974;BME280;7060;43.770;4.008;2023-07-13T07:26:20;101215.16;;;33.33;27.51
13974;BME280;7060;43.770;4.008;2023-07-13T07:28:55;101213.78;;;33.25;26.83
13974;BME280;7060;43.770;4.008;2023-07-13T07:31:27;101218.59;;;33.05;27.43
13974;BME280;7060;43.770;4.008;2023-07-13T07:33:59;101217.78;;;33.04;27.20
13974;BME280;7060;43.770;4.008;2023-07-13T07:36:28;101214.47;;;32.97;27.21
13974;BME280;7060;43.770;4.008;2023-07-13T07:39:00;101211.66;;;33.07;27.66
13974;BME280;7060;43.770;4.008;2023-07-13T07:41:28;101215.69;;;33.35;27.13
13974;BME280;7060;43.770;4.008;2023-07-13T07:44:02;101212.81;;;33.50;27.32
13974;BME280;7060;43.770;4.008;2023-07-13T07:46:31;101204.09;;;33.72;26.45
13974;BME280;7060;43.770;4.008;2023-07-13T07:49:00;101203.38;;;33.51;26.82
13974;BME280;7060;43.770;4.008;2023-07-13T07:51:29;101206.22;;;33.46;26.85
13974;BME280;7060;43.770;4.008;2023-07-13T07:53:58;101212.38;;;33.33;27.00
13974;BME280;7060;43.770;4.008;2023-07-13T07:56:27;101216.00;;;33.23;27.09
13974;BME280;7060;43.770;4.008;2023-07-13T07:58:58;101214.59;;;33.36;26.37
13974;BME280;7060;43.770;4.008;2023-07-13T08:01:32;101207.38;;;33.40;26.43
13974;BME280;7060;43.770;4.008;2023-07-13T08:04:04;101211.91;;;33.16;26.68
13974;BME280;7060;43.770;4.008;2023-07-13T08:06:35;101220.91;;;32.82;26.96
13974;BME280;7060;43.770;4.008;2023-07-13T08:09:07;101212.63;;;32.67;27.03
13974;BME280;7060;43.770;4.008;2023-07-13T08:11:36;101213.25;;;32.44;27.51
13974;BME280;7060;43.770;4.008;2023-07-13T08:14:08;101203.84;;;32.40;27.62
13974;BME280;7060;43.770;4.008;2023-07-13T08:16:39;101212.72;;;32.37;27.38
13974;BME280;7060;43.770;4.008;2023-07-13T08:19:08;101204.44;;;32.37;28.06
13974;BME280;7060;43.770;4.008;2023-07-13T08:21:38;101208.81;;;32.53;27.51
13974;BME280;7060;43.770;4.008;2023-07-13T08:24:07;101205.47;;;32.56;27.17
13974;BME280;7060;43.770;4.008;2023-07-13T08:26:36;101194.66;;;32.65;26.90
13974;BME280;7060;43.770;4.008;2023-07-13T08:29:05;101208.50;;;32.65;27.10
13974;BME280;7060;43.770;4.008;2023-07-13T08:31:34;101211.03;;;32.51;26.80
13974;BME280;7060;43.770;4.008;2023-07-13T08:34:04;101208.81;;;32.48;27.69
13974;BME280;7060;43.770;4.008;2023-07-13T08:36:33;101215.44;;;32.47;27.23
13974;BME280;7060;43.770;4.008;2023-07-13T08:39:02;101212.16;;;32.19;27.43
13974;BME280;7060;43.770;4.008;2023-07-13T08:41:31;101210.50;;;31.98;27.46
13974;BME280;7060;43.770;4.008;2023-07-13T08:44:03;101220.19;;;32.01;28.52
13974;BME280;7060;43.770;4.008;2023-07-13T08:46:38;101216.03;;;32.03;27.64
13974;BME280;7060;43.770;4.008;2023-07-13T08:49:13;101217.16;;;31.97;28.17
13974;BME280;7060;43.770;4.008;2023-07-13T08:51:45;101212.16;;;31.99;28.01
13974;BME280;7060;43.770;4.008;2023-07-13T08:54:24;101195.56;;;31.84;27.83
13974;BME280;7060;43.770;4.008;2023-07-13T08:56:55;101195.56;;;31.84;28.32
13974;BME280;7060;43.770;4.008;2023-07-13T08:59:27;101208.28;;;31.90;28.03
13974;BME280;7060;43.770;4.008;2023-07-13T09:02:25;101209.91;;;31.71;28.60
13974;BME280;7060;43.770;4.008;2023-07-13T09:04:58;101191.94;;;31.48;28.57
13974;BME280;7060;43.770;4.008;2023-07-13T09:07:40;101191.69;;;31.54;28.73
13974;BME280;7060;43.770;4.008;2023-07-13T09:10:15;101122.78;;;31.12;28.62
13974;BME280;7060;43.770;4.008;2023-07-13T09:12:56;101187.25;;;31.69;28.58
13974;BME280;7060;43.770;4.008;2023-07-13T09:15:30;101187.28;;;31.89;28.37
13974;BME280;7060;43.770;4.008;2023-07-13T09:18:04;101193.38;;;32.06;28.11
13974;BME280;7060;43.770;4.008;2023-07-13T09:20:43;101192.50;;;32.16;27.61
13974;BME280;7060;43.770;4.008;2023-07-13T09:23:15;101184.22;;;32.11;27.97
13974;BME280;7060;43.770;4.008;2023-07-13T09:25:48;101182.03;;;31.97;28.47
13974;BME280;7060;43.770;4.008;2023-07-13T09:28:24;101174.00;;;32.01;28.04
13974;BME280;7060;43.770;4.008;2023-07-13T09:31:03;101174.56;;;32.08;28.53
13974;BME280;7060;43.770;4.008;2023-07-13T09:33:33;101178.94;;;32.19;27.65
13974;BME280;7060;43.770;4.008;2023-07-13T09:36:17;101174.81;;;32.32;28.07
13974;BME280;7060;43.770;4.008;2023-07-13T09:38:48;101174.50;;;32.39;28.51
13974;BME280;7060;43.770;4.008;2023-07-13T09:41:23;101151.31;;;32.29;27.85
13974;BME280;7060;43.770;4.008;2023-07-13T09:44:06;101172.28;;;32.51;27.68
13974;BME280;7060;43.770;4.008;2023-07-13T09:46:37;101173.09;;;32.51;27.52
13974;BME280;7060;43.770;4.008;2023-07-13T09:49:09;101152.06;;;32.45;27.86
13974;BME280;7060;43.770;4.008;2023-07-13T09:51:42;101173.63;;;32.58;27.46
13974;BME280;7060;43.770;4.008;2023-07-13T09:54:20;101169.13;;;32.73;27.59
13974;BME280;7060;43.770;4.008;2023-07-13T09:56:54;101143.09;;;32.74;27.72
13974;BME280;7060;43.770;4.008;2023-07-13T09:59:26;101174.53;;;33.13;27.09
13974;BME280;7060;43.770;4.008;2023-07-13T10:01:55;101171.47;;;33.15;27.66
13974;BME280;7060;43.770;4.008;2023-07-13T10:04:30;101105.75;;;32.71;26.94
13974;BME280;7060;43.770;4.008;2023-07-13T10:07:08;101170.28;;;33.31;26.67
13974;BME280;7060;43.770;4.008;2023-07-13T10:09:56;101183.44;;;33.49;26.26
13974;BME280;7060;43.770;4.008;2023-07-13T10:12:25;101180.72;;;33.44;26.31
13974;BME280;7060;43.770;4.008;2023-07-13T10:14:57;101176.72;;;33.60;26.40
13974;BME280;7060;43.770;4.008;2023-07-13T10:17:48;101175.28;;;33.68;26.19
13974;BME280;7060;43.770;4.008;2023-07-13T10:20:18;101179.19;;;33.62;26.11
13974;BME280;7060;43.770;4.008;2023-07-13T10:22:54;101172.78;;;33.67;26.60
13974;BME280;7060;43.770;4.008;2023-07-13T10:25:25;101173.75;;;33.86;26.39
13974;BME280;7060;43.770;4.008;2023-07-13T10:28:04;101113.75;;;33.66;25.83
13974;BME280;7060;43.770;4.008;2023-07-13T10:30:35;101178.50;;;34.14;25.70
13974;BME280;7060;43.770;4.008;2023-07-13T10:33:11;101185.06;;;34.23;26.15
13974;BME280;7060;43.770;4.008;2023-07-13T10:35:43;101181.72;;;34.26;25.87
13974;BME280;7060;43.770;4.008;2023-07-13T10:38:19;101192.13;;;34.40;25.71
13974;BME280;7060;43.770;4.008;2023-07-13T10:40:55;101178.78;;;34.42;25.19
13974;BME280;7060;43.770;4.008;2023-07-13T10:43:27;101168.31;;;34.05;25.21
13974;BME280;7060;43.770;4.008;2023-07-13T10:45:59;101170.53;;;33.74;25.91
13974;BME280;7060;43.770;4.008;2023-07-13T10:48:30;101179.41;;;33.71;26.08
13974;BME280;7060;43.770;4.008;2023-07-13T10:51:02;101173.19;;;33.89;26.53
13974;BME280;7060;43.770;4.008;2023-07-13T10:53:36;101178.34;;;34.29;26.31
13974;BME280;7060;43.770;4.008;2023-07-13T10:56:10;101160.06;;;34.52;25.38
13974;BME280;7060;43.770;4.008;2023-07-13T10:58:45;101169.81;;;34.74;25.37
13974;BME280;7060;43.770;4.008;2023-07-13T11:01:16;101163.00;;;34.85;24.45
13974;BME280;7060;43.770;4.008;2023-07-13T11:03:53;101143.44;;;34.71;24.31
13974;BME280;7060;43.770;4.008;2023-07-13T11:06:33;101151.06;;;34.84;24.84
13974;BME280;7060;43.770;4.008;2023-07-13T11:09:36;101142.84;;;34.74;24.42
13974;BME280;7060;43.770;4.008;2023-07-13T11:12:09;101146.94;;;34.58;24.70
13974;BME280;7060;43.770;4.008;2023-07-13T11:14:44;101163.63;;;34.82;24.71
13974;BME280;7060;43.770;4.008;2023-07-13T11:17:35;101154.31;;;34.91;24.70
13974;BME280;7060;43.770;4.008;2023-07-13T11:20:19;101137.19;;;34.84;23.92
13974;BME280;7060;43.770;4.008;2023-07-13T11:22:50;101140.06;;;34.74;24.43
13974;BME280;7060;43.770;4.008;2023-07-13T11:25:29;101148.13;;;34.76;24.42
13974;BME280;7060;43.770;4.008;2023-07-13T11:28:14;101132.28;;;34.76;24.70
13974;BME280;7060;43.770;4.008;2023-07-13T11:30:47;101134.28;;;34.94;24.40
13974;BME280;7060;43.770;4.008;2023-07-13T11:33:19;101123.41;;;34.74;24.20
13974;BME280;7060;43.770;4.008;2023-07-13T11:35:52;101136.75;;;34.53;24.25
13974;BME280;7060;43.770;4.008;2023-07-13T11:38:27;101097.41;;;34.46;24.22
13974;BME280;7060;43.770;4.008;2023-07-13T11:41:01;101083.94;;;34.35;25.15
13974;BME280;7060;43.770;4.008;2023-07-13T11:43:32;101129.56;;;34.71;24.53
13974;BME280;7060;43.770;4.008;2023-07-13T11:46:15;101131.53;;;34.47;25.00
13974;BME280;7060;43.770;4.008;2023-07-13T11:48:45;101128.94;;;34.32;24.83
13974;BME280;7060;43.770;4.008;2023-07-13T11:51:22;101111.03;;;34.19;24.58
13974;BME280;7060;43.770;4.008;2023-07-13T11:53:53;101102.25;;;34.07;24.99
13974;BME280;7060;43.770;4.008;2023-07-13T11:56:26;101115.00;;;34.08;24.81
13974;BME280;7060;43.770;4.008;2023-07-13T11:58:56;101108.41;;;34.04;24.96
13974;BME280;7060;43.770;4.008;2023-07-13T12:01:28;101108.81;;;34.16;25.12
13974;BME280;7060;43.770;4.008;2023-07-13T12:04:02;101104.72;;;34.37;24.46
13974;BME280;7060;43.770;4.008;2023-07-13T12:06:33;101088.00;;;34.42;24.27
13974;BME280;7060;43.770;4.008;2023-07-13T12:09:12;101098.31;;;34.60;24.01
13974;BME280;7060;43.770;4.008;2023-07-13T12:11:43;101098.41;;;34.74;23.96
13974;BME280;7060;43.770;4.008;2023-07-13T12:14:14;101096.25;;;34.90;24.34
13974;BME280;7060;43.770;4.008;2023-07-13T12:16:45;101096.81;;;35.11;23.97
13974;BME280;7060;43.770;4.008;2023-07-13T12:19:20;101098.47;;;35.31;23.52
13974;BME280;7060;43.770;4.008;2023-07-13T12:21:52;101102.41;;;35.24;23.48
13974;BME280;7060;43.770;4.008;2023-07-13T12:24:22;101090.91;;;35.12;23.51
13974;BME280;7060;43.770;4.008;2023-07-13T12:26:53;101088.06;;;35.17;23.42
13974;BME280;7060;43.770;4.008;2023-07-13T12:29:22;101089.16;;;35.03;23.26
13974;BME280;7060;43.770;4.008;2023-07-13T12:31:52;101074.09;;;34.66;23.50
13974;BME280;7060;43.770;4.008;2023-07-13T12:34:24;101021.75;;;34.12;24.03
13974;BME280;7060;43.770;4.008;2023-07-13T12:36:55;101090.53;;;34.39;24.24
13974;BME280;7060;43.770;4.008;2023-07-13T12:39:34;101092.19;;;34.40;24.19
13974;BME280;7060;43.770;4.008;2023-07-13T12:42:17;101089.94;;;34.42;24.16
13974;BME280;7060;43.770;4.008;2023-07-13T12:44:48;101083.56;;;34.41;24.17
13974;BME280;7060;43.770;4.008;2023-07-13T12:47:20;101069.69;;;34.41;24.14
13974;BME280;7060;43.770;4.008;2023-07-13T12:49:53;101054.53;;;34.34;24.08
13974;BME280;7060;43.770;4.008;2023-07-13T12:52:27;101065.91;;;34.56;23.97
13974;BME280;7060;43.770;4.008;2023-07-13T12:54:59;101056.88;;;34.64;23.74
13974;BME280;7060;43.770;4.008;2023-07-13T12:57:40;101057.78;;;34.59;23.75
13974;BME280;7060;43.770;4.008;2023-07-13T13:00:26;101052.63;;;34.72;23.49
13974;BME280;7060;43.770;4.008;2023-07-13T13:02:57;101044.38;;;34.85;24.19
13974;BME280;7060;43.770;4.008;2023-07-13T13:05:48;101041.31;;;34.87;23.69
13974;BME280;7060;43.770;4.008;2023-07-13T13:08:17;101047.78;;;34.82;23.65
13974;BME280;7060;43.770;4.008;2023-07-13T13:10:47;101047.25;;;34.80;23.52
13974;BME280;7060;43.770;4.008;2023-07-13T13:13:17;101059.19;;;34.81;23.77
13974;BME280;7060;43.770;4.008;2023-07-13T13:15:46;101060.38;;;34.75;23.35
13974;BME280;7060;43.770;4.008;2023-07-13T13:18:16;101060.13;;;34.71;23.17
13974;BME280;7060;43.770;4.008;2023-07-13T13:20:46;101052.56;;;34.77;23.71
13974;BME280;7060;43.770;4.008;2023-07-13T13:23:17;101041.94;;;34.60;23.19
13974;BME280;7060;43.770;4.008;2023-07-13T13:25:50;100985.78;;;34.02;23.57